SGAS/ASU METAR and TAF weather

Enter ICAO airport designator
Station Type Date Time Source
SGAS METAR 2021/07/31 00:00 UTC NOAA

SGAS 310000Z VRB04KT CAVOK 11/04 Q1024


Station Type Date Time Source
SGAS Decoded METAR 2021/07/31 00:00 UTC NOAA

Asuncion / Aeropuerto, Paraguay (SGAS) 25-16S 057-38W 101M
Jul 30, 2021 - 08:00 PM EDT / 2021.07.31 0000 UTC
Wind: Variable at 5 MPH (4 KT):0
Visibility: greater than 7 mile(s):0
Temperature: 51 F (11 C)
Dew Point: 39 F (4 C)
Relative Humidity: 61%
Pressure (altimeter): 30.24 in. Hg (1024 hPa)
ob: SGAS 310000Z VRB04KT CAVOK 11/04 Q1024
cycle: 0

Station Type Date Time Source
SGAS TAF 2021/07/31 00:00 UTC NOAA

TAF SGAS 302320Z 3100/0100 09005KT 8000 NSC TX17/3119Z TN06/3110Z
BECMG 3113/3117 9999 BKN030 PROB30
TEMPO 3117/3119 8000 -RA BKN027

Example: see airport list